Time;durP1;ratioP1;P1;durP2;ratioP2;P2;SDS_P1;SDS_P2;PMS_P1;PMS_P2;Temp;Humidity;BMP_temperature;BMP_pressure;BME280_temperature;BME280_humidity;BME280_pressure;Samples;Min_cycle;Max_cycle;Signal;HPM_P1;HPM_P2
2024/01/06 00:00:53;;;;;;;36.23;18.97;;;;;;;1.42;100.00;99912.34;5040707;28;20211;-75
2024/01/06 00:03:20;;;;;;;37.73;19.37;;;;;;;1.43;100.00;99919.09;5043771;28;20215;-75
2024/01/06 00:05:46;;;;;;;40.83;18.80;;;;;;;1.43;100.00;99913.88;5041343;28;20265;-75
2024/01/06 00:08:13;;;;;;;43.60;20.23;;;;;;;1.44;100.00;99925.81;5038261;28;20275;-75
2024/01/06 00:10:39;;;;;;;37.50;17.53;;;;;;;1.43;100.00;99922.47;5040694;28;20199;-75
2024/01/06 00:13:05;;;;;;;42.80;18.93;;;;;;;1.45;100.00;99927.41;5040034;28;20218;-75
2024/01/06 00:15:32;;;;;;;43.23;19.27;;;;;;;1.45;100.00;99928.16;5037055;28;20882;-75
2024/01/06 00:17:59;;;;;;;39.47;19.37;;;;;;;1.46;100.00;99924.50;5039463;28;20211;-75
2024/01/06 00:20:26;;;;;;;42.63;19.33;;;;;;;1.49;100.00;99938.75;5040664;28;20215;-75
2024/01/06 00:22:52;;;;;;;38.93;17.53;;;;;;;1.49;100.00;99929.16;5041607;28;20199;-74
2024/01/06 00:25:19;;;;;;;45.07;19.70;;;;;;;1.51;100.00;99934.81;5039402;28;20215;-74
2024/01/06 00:27:45;;;;;;;43.37;20.80;;;;;;;1.52;100.00;99933.78;5046013;28;20570;-74
2024/01/06 00:30:15;;;;;;;40.67;18.53;;;;;;;1.54;100.00;99936.09;5039531;28;20199;-74
2024/01/06 00:32:41;;;;;;;46.63;19.67;;;;;;;1.56;100.00;99936.59;5045425;28;20614;-74
2024/01/06 00:35:09;;;;;;;42.27;18.63;;;;;;;1.58;100.00;99943.06;5040574;28;20226;-74
2024/01/06 00:37:35;;;;;;;55.90;20.80;;;;;;;1.60;100.00;99948.75;5039523;28;20286;-74
2024/01/06 00:40:02;;;;;;;40.63;19.43;;;;;;;1.61;100.00;99936.53;5037531;28;20202;-74
2024/01/06 00:42:28;;;;;;;42.47;19.63;;;;;;;1.63;100.00;99944.81;5036331;28;20285;-74
2024/01/06 00:44:55;;;;;;;48.27;19.70;;;;;;;1.63;100.00;99943.00;5039487;28;20700;-74
2024/01/06 00:47:23;;;;;;;51.77;20.17;;;;;;;1.65;100.00;99947.91;5041921;28;20320;-74
2024/01/06 00:49:50;;;;;;;48.17;20.10;;;;;;;1.66;100.00;99950.22;5044627;28;20205;-74
2024/01/06 00:52:17;;;;;;;50.60;20.87;;;;;;;1.69;100.00;99952.28;5040032;28;20677;-74
2024/01/06 00:54:44;;;;;;;50.87;21.70;;;;;;;1.69;100.00;99956.69;5038406;28;20218;-74
2024/01/06 00:57:10;;;;;;;47.77;19.83;;;;;;;1.71;100.00;99952.00;5039142;28;20199;-74
2024/01/06 00:59:36;;;;;;;48.83;20.20;;;;;;;1.72;100.00;99948.34;5040026;28;20661;-74
2024/01/06 01:02:03;;;;;;;50.83;20.43;;;;;;;1.73;100.00;99958.47;5042694;28;20195;-74
2024/01/06 01:04:28;;;;;;;51.80;19.90;;;;;;;1.75;100.00;99958.16;5041966;28;20226;-74
2024/01/06 01:06:55;;;;;;;42.57;19.03;;;;;;;1.78;100.00;99966.22;5035854;28;20199;-74
2024/01/06 01:09:22;;;;;;;59.93;21.43;;;;;;;1.80;100.00;99971.13;5035230;28;20199;-74
2024/01/06 01:11:49;;;;;;;41.57;19.33;;;;;;;1.81;100.00;99967.44;5041326;28;20276;-74
2024/01/06 01:14:18;;;;;;;45.20;19.33;;;;;;;1.82;100.00;99972.38;5037241;28;20239;-74
2024/01/06 01:16:44;;;;;;;51.90;20.20;;;;;;;1.84;100.00;99972.09;5041266;28;20207;-74
2024/01/06 01:19:13;;;;;;;46.50;20.47;;;;;;;1.85;100.00;99969.22;5040978;28;20203;-74
2024/01/06 01:21:39;;;;;;;45.30;20.10;;;;;;;1.88;100.00;99983.50;5040541;28;20205;-74
2024/01/06 01:24:06;;;;;;;52.33;21.00;;;;;;;1.88;100.00;99986.88;5034779;28;20225;-74
2024/01/06 01:26:33;;;;;;;48.90;21.83;;;;;;;1.89;100.00;99983.22;5039650;28;20303;-74
2024/01/06 01:29:00;;;;;;;41.80;18.90;;;;;;;1.93;100.00;99988.63;5038387;28;20196;-74
2024/01/06 01:31:26;;;;;;;50.87;21.07;;;;;;;1.94;100.00;99992.78;5040712;28;20215;-74
2024/01/06 01:33:53;;;;;;;44.60;20.90;;;;;;;1.94;100.00;99992.78;5038075;28;20231;-74
2024/01/06 01:36:21;;;;;;;53.47;21.47;;;;;;;1.97;100.00;99984.41;5038463;28;20215;-74
2024/01/06 01:38:48;;;;;;;49.70;20.90;;;;;;;1.97;100.00;99979.97;5041270;28;20203;-74
2024/01/06 01:41:14;;;;;;;55.60;22.23;;;;;;;2.00;100.00;99976.03;5039155;28;20196;-74
2024/01/06 01:43:42;;;;;;;51.93;21.50;;;;;;;2.01;100.00;99982.78;5039631;28;20247;-74
2024/01/06 01:46:08;;;;;;;45.67;21.00;;;;;;;2.03;100.00;99978.84;5041788;28;20212;-74
2024/01/06 01:48:35;;;;;;;44.43;20.87;;;;;;;2.04;100.00;99971.81;5038159;28;20203;-74
2024/01/06 01:51:02;;;;;;;46.17;20.73;;;;;;;2.05;100.00;99973.34;5038847;28;20191;-74
2024/01/06 01:53:28;;;;;;;51.63;21.60;;;;;;;2.07;100.00;99976.47;5041629;28;20227;-74
2024/01/06 01:55:55;;;;;;;48.43;20.70;;;;;;;2.06;100.00;99975.66;5041746;28;20658;-74
2024/01/06 01:58:22;;;;;;;52.13;22.90;;;;;;;2.08;100.00;99981.38;5037349;28;20269;-74
2024/01/06 02:00:49;;;;;;;51.20;22.47;;;;;;;2.07;100.00;99984.28;5039826;28;20265;-74
2024/01/06 02:03:17;;;;;;;49.57;21.17;;;;;;;2.08;100.00;99985.81;5042583;28;20658;-74
2024/01/06 02:05:44;;;;;;;47.83;21.00;;;;;;;2.10;100.00;99986.28;5042573;28;20215;-74
2024/01/06 02:08:11;;;;;;;44.43;20.50;;;;;;;2.09;100.00;99969.91;5040299;28;20211;-74
2024/01/06 02:10:37;;;;;;;48.03;20.53;;;;;;;2.10;100.00;99974.06;5041147;28;20203;-74
2024/01/06 02:13:10;;;;;;;53.20;21.13;;;;;;;2.09;100.00;99982.94;5039656;28;20283;-74
2024/01/06 02:15:38;;;;;;;44.17;20.83;;;;;;;2.10;100.00;99984.47;5043418;28;20249;-74
2024/01/06 02:18:06;;;;;;;47.43;21.53;;;;;;;2.11;100.00;99980.03;5038713;28;20191;-75
2024/01/06 02:20:33;;;;;;;49.93;21.20;;;;;;;2.12;100.00;99973.75;5039233;28;20195;-74
2024/01/06 02:23:00;;;;;;;50.03;20.80;;;;;;;2.10;100.00;99974.06;5042864;28;20622;-74
2024/01/06 02:25:27;;;;;;;51.20;21.07;;;;;;;2.10;100.00;99970.66;5042323;28;20234;-74
2024/01/06 02:27:53;;;;;;;52.83;21.80;;;;;;;2.09;100.00;99982.16;5043289;28;20195;-74
2024/01/06 02:30:19;;;;;;;46.70;21.23;;;;;;;2.08;100.00;99983.22;5036863;28;20210;-74
2024/01/06 02:32:46;;;;;;;48.67;21.80;;;;;;;2.10;100.00;99975.88;5046410;28;20198;-74
2024/01/06 02:35:12;;;;;;;47.70;21.77;;;;;;;2.08;100.00;99991.78;5041428;28;20231;-74
2024/01/06 02:37:39;;;;;;;50.30;22.07;;;;;;;2.09;100.00;99989.97;5037545;28;20286;-74
2024/01/06 02:40:08;;;;;;;53.43;22.27;;;;;;;2.05;100.00;99986.38;5036766;28;20202;-74
2024/01/06 02:42:34;;;;;;;48.50;20.83;;;;;;;2.05;100.00;99989.75;5038568;28;20213;-74
2024/01/06 02:45:00;;;;;;;46.80;21.13;;;;;;;2.05;100.00;99988.97;5038767;28;20246;-74
2024/01/06 02:47:27;;;;;;;48.73;21.50;;;;;;;2.05;100.00;99991.56;5042024;28;20558;-74
2024/01/06 02:49:53;;;;;;;50.77;22.07;;;;;;;2.01;100.00;100001.00;5041472;28;20565;-74
2024/01/06 02:52:19;;;;;;;47.10;22.17;;;;;;;2.00;100.00;100002.84;5040916;28;20569;-74
2024/01/06 02:54:46;;;;;;;52.37;21.30;;;;;;;1.99;100.00;100003.13;5035839;28;20230;-74
2024/01/06 02:57:14;;;;;;;47.60;20.77;;;;;;;1.98;100.00;99996.38;5039355;28;20207;-74
2024/01/06 02:59:40;;;;;;;47.40;22.03;;;;;;;1.98;100.00;100004.94;5040705;28;20199;-74
2024/01/06 03:02:07;;;;;;;42.10;20.13;;;;;;;1.97;100.00;100016.41;5038340;28;20203;-74
2024/01/06 03:04:33;;;;;;;48.80;21.83;;;;;;;1.97;100.00;100019.03;5037635;28;20235;-74
2024/01/06 03:06:59;;;;;;;53.57;22.80;;;;;;;1.96;100.00;100022.69;5036803;28;20223;-74
2024/01/06 03:09:26;;;;;;;55.97;23.10;;;;;;;1.96;100.00;100016.69;5034240;28;20211;-74
2024/01/06 03:11:52;;;;;;;55.27;21.47;;;;;;;1.96;100.00;100016.69;5036903;28;20210;-74
2024/01/06 03:14:20;;;;;;;55.33;24.17;;;;;;;1.91;100.00;100014.16;5041787;28;20313;-74
2024/01/06 03:16:46;;;;;;;139.33;54.30;;;;;;;1.92;100.00;100019.09;5040412;28;20203;-74
2024/01/06 03:19:12;;;;;;;57.00;24.70;;;;;;;1.93;100.00;100022.47;5042188;28;20207;-74
2024/01/06 03:21:39;;;;;;;75.57;33.07;;;;;;;1.93;100.00;100023.25;5044335;28;20203;-74
2024/01/06 03:24:08;;;;;;;52.00;22.87;;;;;;;1.90;100.00;100017.81;5041513;28;20252;-74
2024/01/06 03:26:35;;;;;;;53.70;22.53;;;;;;;1.89;100.00;100022.28;5037859;28;20251;-74
2024/01/06 03:29:02;;;;;;;53.10;23.07;;;;;;;1.88;100.00;100023.31;5038349;28;20559;-74
2024/01/06 03:31:30;;;;;;;60.87;26.43;;;;;;;1.86;100.00;100028.03;5038696;28;20200;-74
2024/01/06 03:33:56;;;;;;;54.50;25.57;;;;;;;1.87;100.00;100026.97;5041431;28;20231;-74
2024/01/06 03:36:23;;;;;;;53.20;23.47;;;;;;;1.86;100.00;100032.44;5039484;28;20195;-74
2024/01/06 03:38:49;;;;;;;49.97;23.17;;;;;;;1.83;100.00;100030.44;5043238;28;20692;-74
2024/01/06 03:41:15;;;;;;;51.83;21.73;;;;;;;1.79;100.00;100035.44;5042644;28;20204;-74
2024/01/06 03:43:41;;;;;;;49.90;21.07;;;;;;;1.81;100.00;100032.53;5040950;28;20231;-74
2024/01/06 03:46:08;;;;;;;52.43;22.47;;;;;;;1.80;100.00;100038.78;5040470;28;20298;-74
2024/01/06 03:48:36;;;;;;;49.93;22.83;;;;;;;1.80;100.00;100041.38;5038329;28;20203;-74
2024/01/06 03:51:03;;;;;;;43.37;20.17;;;;;;;1.79;100.00;100040.63;5041844;28;20203;-74
2024/01/06 03:53:30;;;;;;;44.90;20.93;;;;;;;1.78;100.00;100035.69;5043871;28;20226;-74
2024/01/06 03:55:56;;;;;;;47.57;21.40;;;;;;;1.77;100.00;100041.97;5043524;28;20202;-74
2024/01/06 03:58:22;;;;;;;49.67;20.63;;;;;;;1.74;100.00;100038.09;5041683;28;20196;-74
2024/01/06 04:00:48;;;;;;;52.50;20.73;;;;;;;1.73;100.00;100031.34;5040484;28;20813;-74
2024/01/06 04:03:15;;;;;;;42.10;19.37;;;;;;;1.74;100.00;100032.09;5041035;28;20203;-74
2024/01/06 04:05:42;;;;;;;44.60;20.90;;;;;;;1.72;100.00;100029.78;5042419;28;20234;-74
2024/01/06 04:08:09;;;;;;;52.40;21.77;;;;;;;1.72;100.00;100029.78;5042305;28;20214;-74
2024/01/06 04:10:35;;;;;;;45.07;20.13;;;;;;;1.72;100.00;100042.03;5040463;28;20207;-74
2024/01/06 04:13:01;;;;;;;47.67;20.67;;;;;;;1.71;100.00;100041.25;5039264;28;20221;-74
2024/01/06 04:15:28;;;;;;;47.10;21.33;;;;;;;1.72;100.00;100039.44;5041682;28;20543;-74
2024/01/06 04:17:55;;;;;;;50.10;21.17;;;;;;;1.69;100.00;100032.94;5036971;28;20676;-74
2024/01/06 04:20:21;;;;;;;56.30;21.77;;;;;;;1.70;100.00;100036.31;5045095;28;20199;-74
2024/01/06 04:22:49;;;;;;;47.63;21.00;;;;;;;1.64;100.00;100040.81;5039328;28;20567;-74
2024/01/06 04:25:15;;;;;;;49.77;21.03;;;;;;;1.65;100.00;100042.38;5043043;28;20215;-74
2024/01/06 04:27:42;;;;;;;45.63;19.73;;;;;;;1.64;100.00;100040.81;5037201;28;20209;-74
2024/01/06 04:30:09;;;;;;;53.17;22.67;;;;;;;1.63;100.00;100046.31;5039897;28;20205;-74
2024/01/06 04:32:35;;;;;;;48.83;21.10;;;;;;;1.62;100.00;100052.56;5042643;28;20199;-74
2024/01/06 04:35:02;;;;;;;51.00;20.13;;;;;;;1.61;100.00;100038.75;5040289;28;21407;-74
2024/01/06 04:37:29;;;;;;;51.93;22.00;;;;;;;1.61;100.00;100043.22;5039800;28;20206;-74
2024/01/06 04:39:56;;;;;;;45.03;20.50;;;;;;;1.61;100.00;100041.38;5039485;28;20200;-74
2024/01/06 04:42:23;;;;;;;48.13;20.57;;;;;;;1.60;100.00;100046.84;5041978;28;20200;-74
2024/01/06 04:44:50;;;;;;;45.77;21.23;;;;;;;1.61;100.00;100051.03;5038649;28;20277;-74
2024/01/06 04:47:16;;;;;;;51.03;21.13;;;;;;;1.59;100.00;100051.28;5043222;28;20718;-74
2024/01/06 04:49:42;;;;;;;48.00;22.23;;;;;;;1.59;100.00;100059.09;5034687;28;20195;-74
2024/01/06 04:52:09;;;;;;;44.37;21.27;;;;;;;1.58;100.00;100060.16;5040828;28;20219;-74
2024/01/06 04:54:35;;;;;;;50.13;21.13;;;;;;;1.59;100.00;100060.91;5043885;28;20225;-74
2024/01/06 04:57:04;;;;;;;57.77;22.73;;;;;;;1.59;100.00;100064.31;5041897;28;20206;-74
2024/01/06 04:59:30;;;;;;;49.83;22.17;;;;;;;1.59;100.00;100059.09;5040344;28;20215;-74
2024/01/06 05:01:58;;;;;;;51.07;21.87;;;;;;;1.60;100.00;100075.47;5033783;28;20219;-74
2024/01/06 05:04:25;;;;;;;47.47;20.87;;;;;;;1.58;100.00;100074.97;5041771;28;20226;-74
2024/01/06 05:06:52;;;;;;;51.27;21.47;;;;;;;1.57;100.00;100083.84;5038343;28;20555;-74
2024/01/06 05:09:18;;;;;;;51.33;22.93;;;;;;;1.57;100.00;100084.59;5038696;28;20606;-74
2024/01/06 05:11:45;;;;;;;52.07;23.57;;;;;;;1.58;100.00;100091.38;5041442;28;20212;-74
2024/01/06 05:14:13;;;;;;;47.53;21.63;;;;;;;1.56;100.00;100072.66;5042243;28;20211;-74
2024/01/06 05:16:39;;;;;;;45.97;21.33;;;;;;;1.57;100.00;100083.84;5041506;28;20192;-74
2024/01/06 05:19:05;;;;;;;48.27;21.70;;;;;;;1.56;100.00;100082.31;5041947;28;20191;-74
2024/01/06 05:21:32;;;;;;;51.93;22.47;;;;;;;1.56;100.00;100085.66;5038425;28;20293;-74
2024/01/06 05:23:58;;;;;;;52.77;23.90;;;;;;;1.55;100.00;100088.53;5041134;28;20222;-74
2024/01/06 05:26:25;;;;;;;51.97;21.97;;;;;;;1.53;100.00;100088.84;5038482;28;20204;-74
2024/01/06 05:28:51;;;;;;;50.47;22.17;;;;;;;1.53;100.00;100090.66;5040107;28;20234;-74
2024/01/06 05:31:19;;;;;;;52.53;22.60;;;;;;;1.53;100.00;100090.66;5040160;28;20214;-74
2024/01/06 05:33:45;;;;;;;53.77;23.20;;;;;;;1.51;100.00;100100.56;5038341;28;20239;-74
2024/01/06 05:36:11;;;;;;;50.17;21.47;;;;;;;1.52;100.00;100109.91;5038826;28;21534;-74
2024/01/06 05:38:38;;;;;;;48.47;22.67;;;;;;;1.50;100.00;100110.19;5041197;28;20203;-74
2024/01/06 05:41:04;;;;;;;56.73;23.13;;;;;;;1.49;100.00;100118.25;5040448;28;20215;-74
2024/01/06 05:43:30;;;;;;;47.80;22.70;;;;;;;1.45;100.00;100118.03;5043747;28;20830;-74
2024/01/06 05:45:57;;;;;;;48.77;22.33;;;;;;;1.44;100.00;100113.91;5036183;28;20685;-74
2024/01/06 05:48:24;;;;;;;50.23;23.00;;;;;;;1.42;100.00;100123.81;5037163;28;20207;-74
2024/01/06 05:50:51;;;;;;;46.10;21.90;;;;;;;1.39;100.00;100119.16;5038464;28;20196;-74
2024/01/06 05:53:18;;;;;;;58.10;23.50;;;;;;;1.39;100.00;100134.75;5042304;28;20223;-74
2024/01/06 05:55:45;;;;;;;50.73;23.50;;;;;;;1.39;100.00;100136.56;5038336;28;20203;-74
2024/01/06 05:58:11;;;;;;;48.83;22.13;;;;;;;1.35;100.00;100140.81;5041286;28;20579;-74
2024/01/06 06:00:38;;;;;;;49.00;21.57;;;;;;;1.34;100.00;100142.63;5038538;28;20210;-74
2024/01/06 06:03:05;;;;;;;53.73;24.27;;;;;;;1.34;100.00;100147.81;5039329;28;20224;-74
2024/01/06 06:05:33;;;;;;;47.83;22.73;;;;;;;1.34;100.00;100153.00;5039292;28;20737;-74
2024/01/06 06:07:59;;;;;;;52.83;23.97;;;;;;;1.32;100.00;100157.72;5038397;28;20216;-74
2024/01/06 06:10:29;;;;;;;52.47;23.13;;;;;;;1.29;100.00;100158.25;5036201;28;20200;-74
2024/01/06 06:12:56;;;;;;;50.30;23.40;;;;;;;1.30;100.00;100170.22;5035914;28;20235;-74
2024/01/06 06:15:22;;;;;;;51.90;23.80;;;;;;;1.28;100.00;100176.75;5035673;28;20216;-74
2024/01/06 06:17:48;;;;;;;52.37;23.70;;;;;;;1.27;100.00;100178.59;5040871;28;20270;-74
2024/01/06 06:20:14;;;;;;;52.33;24.17;;;;;;;1.27;100.00;100186.38;5042101;28;20198;-74
2024/01/06 06:22:42;;;;;;;55.90;23.67;;;;;;;1.26;100.00;100184.03;5039094;28;20219;-74
2024/01/06 06:25:08;;;;;;;52.67;23.87;;;;;;;1.25;100.00;100190.31;5037938;28;20588;-74
2024/01/06 06:27:35;;;;;;;52.80;23.00;;;;;;;1.24;100.00;100194.72;5039022;28;20229;-74
2024/01/06 06:30:01;;;;;;;58.57;25.40;;;;;;;1.24;100.00;100201.72;5040173;28;20254;-74
2024/01/06 06:32:28;;;;;;;55.13;23.93;;;;;;;1.20;100.00;100201.50;5036645;28;20723;-74
2024/01/06 06:34:54;;;;;;;59.90;24.90;;;;;;;1.22;100.00;100204.63;5037823;28;20737;-74
2024/01/06 06:37:20;;;;;;;66.63;28.10;;;;;;;1.22;100.00;100209.03;5037798;28;20225;-74
2024/01/06 06:39:48;;;;;;;54.17;25.07;;;;;;;1.21;100.00;100210.84;5037877;28;21545;-74
2024/01/06 06:42:14;;;;;;;58.40;25.50;;;;;;;1.22;100.00;100222.03;5038011;28;20199;-74
2024/01/06 06:44:41;;;;;;;50.50;24.07;;;;;;;1.21;100.00;100220.50;5039997;28;20227;-74
2024/01/06 06:47:07;;;;;;;56.63;26.50;;;;;;;1.20;100.00;100221.56;5041214;28;20558;-74
2024/01/06 06:49:34;;;;;;;56.37;24.43;;;;;;;1.20;100.00;100224.91;5038184;28;20199;-74
2024/01/06 06:52:00;;;;;;;55.80;24.53;;;;;;;1.16;100.00;100229.13;5040282;28;20199;-74
2024/01/06 06:54:26;;;;;;;51.13;23.97;;;;;;;1.17;100.00;100233.28;5042445;28;20229;-74
2024/01/06 06:56:54;;;;;;;53.47;24.43;;;;;;;1.14;100.00;100222.63;5037542;28;20203;-74
2024/01/06 06:59:20;;;;;;;48.87;22.83;;;;;;;1.13;100.00;100232.25;5036925;28;20641;-74
2024/01/06 07:01:47;;;;;;;44.30;23.90;;;;;;;1.12;100.00;100238.50;5037472;28;20987;-74
2024/01/06 07:04:13;;;;;;;54.30;24.00;;;;;;;1.11;100.00;100241.38;5038369;28;20243;-74
2024/01/06 07:06:39;;;;;;;48.77;23.63;;;;;;;1.08;100.00;100252.31;5037925;28;20221;-74
2024/01/06 07:09:06;;;;;;;51.90;24.77;;;;;;;1.07;100.00;100246.34;5036031;28;20211;-74
2024/01/06 07:11:32;;;;;;;51.77;23.57;;;;;;;1.07;100.00;100250.75;5036717;28;20670;-74
2024/01/06 07:13:59;;;;;;;54.33;24.20;;;;;;;1.06;100.00;100262.22;5035056;28;20234;-74
2024/01/06 07:16:26;;;;;;;52.20;24.37;;;;;;;1.06;100.00;100272.59;5037305;28;20220;-74
2024/01/06 07:18:53;;;;;;;56.60;25.57;;;;;;;1.05;100.00;100278.84;5034967;28;20231;-74
2024/01/06 07:21:19;;;;;;;52.07;23.47;;;;;;;1.02;100.00;100277.56;5034691;28;20204;-74
2024/01/06 07:23:45;;;;;;;62.27;26.90;;;;;;;1.04;100.00;100285.09;5038509;28;20223;-74
2024/01/06 07:26:12;;;;;;;52.77;24.17;;;;;;;1.05;100.00;100294.47;5038357;28;20616;-74
2024/01/06 07:28:38;;;;;;;54.40;24.20;;;;;;;1.05;100.00;100290.00;5037666;28;20215;-74
2024/01/06 07:31:06;;;;;;;53.93;23.77;;;;;;;1.04;100.00;100298.88;5035643;28;20282;-74
2024/01/06 07:33:32;;;;;;;53.23;24.27;;;;;;;1.04;100.00;100304.06;5039912;28;20246;-74
2024/01/06 07:35:58;;;;;;;59.80;25.10;;;;;;;1.05;100.00;100303.00;5040056;28;20216;-74
2024/01/06 07:38:25;;;;;;;50.03;23.47;;;;;;;1.06;100.00;100298.59;5041269;28;20206;-74
2024/01/06 07:40:51;;;;;;;50.03;23.57;;;;;;;1.06;100.00;100306.41;5040453;28;20200;-74
2024/01/06 07:43:17;;;;;;;49.97;22.27;;;;;;;1.06;100.00;100306.41;5036761;28;21000;-74
2024/01/06 07:45:44;;;;;;;54.43;25.63;;;;;;;1.05;100.00;100310.81;5031515;28;20216;-74
2024/01/06 07:48:11;;;;;;;52.80;24.53;;;;;;;1.07;100.00;100313.16;5036495;28;20224;-74
2024/01/06 07:50:38;;;;;;;51.83;24.33;;;;;;;1.06;100.00;100316.81;5035316;28;20229;-74
2024/01/06 07:53:04;;;;;;;62.83;26.00;;;;;;;1.06;100.00;100322.78;5037140;28;20254;-74
2024/01/06 07:55:31;;;;;;;57.17;24.70;;;;;;;1.07;100.00;100326.16;5033927;28;20200;-75
2024/01/06 07:57:57;;;;;;;54.83;24.37;;;;;;;1.08;100.00;100331.09;5035599;28;20200;-74
2024/01/06 08:00:24;;;;;;;52.17;24.33;;;;;;;1.09;100.00;100335.22;5035385;28;20565;-74
2024/01/06 08:02:50;;;;;;;53.27;24.50;;;;;;;1.07;100.00;100332.13;5037059;28;20706;-74
2024/01/06 08:05:18;;;;;;;54.30;24.17;;;;;;;1.08;100.00;100328.47;5034780;28;20238;-74
2024/01/06 08:07:44;;;;;;;51.53;25.07;;;;;;;1.06;100.00;100335.78;5041222;28;20573;-74
2024/01/06 08:10:10;;;;;;;55.60;24.43;;;;;;;1.07;100.00;100342.53;5036570;28;20717;-74
2024/01/06 08:12:37;;;;;;;58.10;24.77;;;;;;;1.09;100.00;100342.28;5037345;28;20234;-74
2024/01/06 08:15:04;;;;;;;53.10;24.73;;;;;;;1.08;100.00;100340.69;5035610;28;20235;-74
2024/01/06 08:17:30;;;;;;;57.50;25.07;;;;;;;1.08;100.00;100361.50;5040679;28;20215;-74
2024/01/06 08:19:57;;;;;;;61.13;26.90;;;;;;;1.10;100.00;100351.63;5040726;28;20214;-74
2024/01/06 08:22:24;;;;;;;56.70;25.10;;;;;;;1.10;100.00;100356.81;5041344;28;20214;-74
2024/01/06 08:24:51;;;;;;;57.50;25.53;;;;;;;1.12;100.00;100354.72;5037895;28;20222;-74
2024/01/06 08:27:17;;;;;;;55.40;25.33;;;;;;;1.12;100.00;100358.13;5042766;28;20933;-74
2024/01/06 08:29:43;;;;;;;62.47;25.07;;;;;;;1.14;100.00;100370.84;5045497;28;20278;-74
2024/01/06 08:32:11;;;;;;;54.03;23.63;;;;;;;1.15;100.00;100362.75;5041184;28;20202;-74
2024/01/06 08:34:38;;;;;;;58.33;25.43;;;;;;;1.16;100.00;100374.75;5037728;28;20273;-74
2024/01/06 08:37:04;;;;;;;64.80;24.63;;;;;;;1.18;100.00;100379.66;5036338;28;20204;-74
2024/01/06 08:39:32;;;;;;;53.67;25.10;;;;;;;1.16;100.00;100377.34;5040097;28;20261;-74
2024/01/06 08:41:59;;;;;;;57.27;24.00;;;;;;;1.19;100.00;100378.63;5036999;28;20686;-74
2024/01/06 08:44:25;;;;;;;57.93;25.50;;;;;;;1.20;100.00;100380.94;5043084;28;20215;-74
2024/01/06 08:46:51;;;;;;;61.63;25.87;;;;;;;1.19;100.00;100379.38;5035873;28;20203;-74
2024/01/06 08:49:18;;;;;;;55.97;24.50;;;;;;;1.21;100.00;100387.69;5041526;28;20211;-74
2024/01/06 08:51:45;;;;;;;63.13;25.27;;;;;;;1.23;100.00;100388.22;5039944;28;21236;-74
2024/01/06 08:54:11;;;;;;;59.97;24.73;;;;;;;1.22;100.00;100386.66;5036008;28;20234;-74
2024/01/06 08:56:39;;;;;;;62.37;25.70;;;;;;;1.26;100.00;100389.50;5041215;28;20211;-74
2024/01/06 08:59:06;;;;;;;67.33;28.03;;;;;;;1.28;100.00;100397.81;5038795;28;20203;-74
2024/01/06 09:01:34;;;;;;;64.27;25.33;;;;;;;1.29;100.00;100384.53;5037505;28;20294;-74
2024/01/06 09:04:00;;;;;;;61.10;26.50;;;;;;;1.30;100.00;100396.47;5034943;28;20210;-74
2024/01/06 09:06:26;;;;;;;64.40;25.57;;;;;;;1.31;100.00;100392.06;5040163;28;20196;-74
2024/01/06 09:08:53;;;;;;;63.17;25.43;;;;;;;1.36;100.00;100392.03;5038012;28;20546;-74
2024/01/06 09:11:19;;;;;;;57.70;26.03;;;;;;;1.36;100.00;100399.84;5035453;28;20204;-74
2024/01/06 09:13:47;;;;;;;57.37;25.80;;;;;;;1.38;100.00;100397.75;5039841;28;20226;-74
2024/01/06 09:16:13;;;;;;;58.33;26.07;;;;;;;1.38;100.00;100393.34;5036466;28;20210;-74
2024/01/06 09:18:40;;;;;;;61.77;24.47;;;;;;;1.39;100.00;100397.47;5038312;28;20203;-74
2024/01/06 09:21:07;;;;;;;59.77;25.27;;;;;;;1.42;100.00;100396.97;5039671;28;20211;-74
2024/01/06 09:23:33;;;;;;;51.23;23.03;;;;;;;1.46;100.00;100405.00;5035807;28;20222;-74
2024/01/06 09:25:59;;;;;;;53.13;24.90;;;;;;;1.50;100.00;100406.78;5037247;28;20634;-74
2024/01/06 09:28:26;;;;;;;54.20;23.40;;;;;;;1.53;100.00;100416.66;5038325;28;20219;-74
2024/01/06 09:30:55;;;;;;;60.40;23.83;;;;;;;1.55;100.00;100421.56;5035179;28;20191;-74
2024/01/06 09:33:22;;;;;;;48.20;22.90;;;;;;;1.60;100.00;100426.75;5036423;28;20230;-74
2024/01/06 09:35:48;;;;;;;54.63;23.33;;;;;;;1.61;100.00;100423.88;5036552;28;20211;-74
2024/01/06 09:38:14;;;;;;;54.20;24.40;;;;;;;1.65;100.00;100424.09;5031897;28;20196;-74
2024/01/06 09:40:43;;;;;;;57.30;23.83;;;;;;;1.67;100.00;100422.78;5040813;28;20203;-74
2024/01/06 09:43:09;;;;;;;54.33;23.33;;;;;;;1.71;100.00;100417.84;5034633;28;20227;-74
2024/01/06 09:45:36;;;;;;;53.83;22.80;;;;;;;1.72;100.00;100427.22;5035427;28;20207;-74
2024/01/06 09:48:12;;;;;;;53.40;22.10;;;;;;;1.72;100.00;100429.81;5035697;28;20219;-74
2024/01/06 09:50:41;;;;;;;54.83;22.73;;;;;;;1.75;100.00;100429.25;5032035;28;20276;-74
2024/01/06 09:53:10;;;;;;;49.37;22.83;;;;;;;1.77;100.00;100432.38;5037658;28;20210;-74
2024/01/06 09:55:37;;;;;;;44.57;21.67;;;;;;;1.78;100.00;100432.13;5037986;28;20235;-74
2024/01/06 09:58:04;;;;;;;51.03;22.63;;;;;;;1.78;100.00;100431.31;5031261;28;20550;-74
2024/01/06 10:00:31;;;;;;;54.77;22.40;;;;;;;1.80;100.00;100434.41;5038419;28;20661;-74
2024/01/06 10:02:57;;;;;;;48.20;22.40;;;;;;;1.81;100.00;100436.75;5034568;28;20199;-74
2024/01/06 10:05:25;;;;;;;50.07;22.43;;;;;;;1.82;100.00;100437.56;5035489;28;20597;-74
2024/01/06 10:07:51;;;;;;;53.07;22.50;;;;;;;1.84;100.00;100440.66;5034099;28;20227;-74
2024/01/06 10:10:18;;;;;;;49.30;22.57;;;;;;;1.82;100.00;100448.72;5032695;28;20203;-74
2024/01/06 10:12:45;;;;;;;49.73;20.80;;;;;;;1.80;100.00;100453.44;5033208;28;20286;-74
2024/01/06 10:15:12;;;;;;;42.60;20.20;;;;;;;1.82;100.00;100448.72;5034902;28;20227;-74
2024/01/06 10:17:39;;;;;;;44.37;20.60;;;;;;;1.86;100.00;100441.94;5034061;28;21007;-74
2024/01/06 10:20:08;;;;;;;48.40;21.20;;;;;;;1.88;100.00;100445.03;5032277;28;20294;-74
2024/01/06 10:22:37;;;;;;;49.30;20.57;;;;;;;1.91;100.00;100451.53;5036502;28;20213;-74
2024/01/06 10:25:06;;;;;;;44.03;19.70;;;;;;;1.93;100.00;100454.66;5032641;28;20717;-74
2024/01/06 10:27:34;;;;;;;43.80;20.17;;;;;;;1.95;100.00;100457.75;5038306;28;20794;-74
2024/01/06 10:30:01;;;;;;;41.17;19.53;;;;;;;1.96;100.00;100454.88;5031655;28;20226;-74
2024/01/06 10:32:30;;;;;;;44.03;19.23;;;;;;;1.98;100.00;100444.19;5036561;28;20200;-74
2024/01/06 10:34:56;;;;;;;45.20;21.53;;;;;;;1.97;100.00;100447.84;5033475;28;20231;-74
2024/01/06 10:37:24;;;;;;;41.87;20.40;;;;;;;1.95;100.00;100447.34;5029216;28;20607;-74
2024/01/06 10:40:09;;;;;;;37.77;18.57;;;;;;;1.96;100.00;100446.28;5031412;28;20230;-74
2024/01/06 10:42:37;;;;;;;43.33;19.57;;;;;;;1.98;100.00;100439.00;5029359;28;20223;-74
2024/01/06 10:45:07;;;;;;;45.43;19.87;;;;;;;1.97;100.00;100453.06;5033516;28;20650;-74
2024/01/06 10:47:35;;;;;;;45.67;20.17;;;;;;;1.99;100.00;100449.16;5029846;28;20215;-74
2024/01/06 10:50:02;;;;;;;41.13;20.03;;;;;;;1.97;100.00;100448.63;5031446;28;20221;-73
2024/01/06 10:52:29;;;;;;;38.07;20.10;;;;;;;2.00;100.00;100455.91;5036931;28;20663;-74
2024/01/06 10:54:57;;;;;;;46.33;22.33;;;;;;;2.00;100.00;100453.28;5030035;28;20232;-74
2024/01/06 10:57:24;;;;;;;44.83;20.07;;;;;;;1.99;100.00;100451.75;5036998;28;20215;-74
2024/01/06 10:59:51;;;;;;;42.37;20.10;;;;;;;2.01;100.00;100451.44;5036198;28;20266;-74
2024/01/06 11:02:18;;;;;;;42.63;20.57;;;;;;;2.03;100.00;100451.97;5033771;28;20203;-74
2024/01/06 11:04:46;;;;;;;41.17;20.13;;;;;;;2.05;100.00;100455.88;5034192;28;20215;-74
2024/01/06 11:07:14;;;;;;;44.00;20.03;;;;;;;2.05;100.00;100455.88;5036151;28;20577;-74
2024/01/06 11:09:46;;;;;;;40.73;19.27;;;;;;;2.05;100.00;100457.69;5031198;28;20211;-74